sensor_id;sensor_type;location;lat;lon;timestamp;pressure;altitude;pressure_sealevel;temperature;humidity
74631;BME280;63138;55.082;38.804;2023-05-15T00:00:37;100624.44;;;7.63;79.39
74631;BME280;63138;55.082;38.804;2023-05-15T00:03:04;100622.88;;;7.60;79.66
74631;BME280;63138;55.082;38.804;2023-05-15T00:05:30;100621.16;;;7.59;79.49
74631;BME280;63138;55.082;38.804;2023-05-15T00:07:56;100617.75;;;7.57;79.48
74631;BME280;63138;55.082;38.804;2023-05-15T00:10:21;100626.56;;;7.59;79.80
74631;BME280;63138;55.082;38.804;2023-05-15T00:12:47;100630.28;;;7.58;79.74
74631;BME280;63138;55.082;38.804;2023-05-15T00:15:13;100629.28;;;7.59;79.71
74631;BME280;63138;55.082;38.804;2023-05-15T00:17:39;100623.16;;;7.57;79.87
74631;BME280;63138;55.082;38.804;2023-05-15T00:20:06;100622.31;;;7.57;79.81
74631;BME280;63138;55.082;38.804;2023-05-15T00:22:34;100616.91;;;7.57;79.96
74631;BME280;63138;55.082;38.804;2023-05-15T00:25:00;100626.88;;;7.56;80.31
74631;BME280;63138;55.082;38.804;2023-05-15T00:27:26;100622.59;;;7.54;80.12
74631;BME280;63138;55.082;38.804;2023-05-15T00:29:52;100632.56;;;7.53;80.28
74631;BME280;63138;55.082;38.804;2023-05-15T00:32:18;100626.00;;;7.56;79.63
74631;BME280;63138;55.082;38.804;2023-05-15T00:34:44;100627.41;;;7.50;79.81
74631;BME280;63138;55.082;38.804;2023-05-15T00:37:10;100628.25;;;7.51;80.38
74631;BME280;63138;55.082;38.804;2023-05-15T00:39:37;100626.88;;;7.56;79.93
74631;BME280;63138;55.082;38.804;2023-05-15T00:42:03;100621.16;;;7.59;79.91
74631;BME280;63138;55.082;38.804;2023-05-15T00:44:33;100622.88;;;7.60;79.32
74631;BME280;63138;55.082;38.804;2023-05-15T00:47:00;100624.44;;;7.63;79.78
74631;BME280;63138;55.082;38.804;2023-05-15T00:49:28;100625.31;;;7.63;79.49
74631;BME280;63138;55.082;38.804;2023-05-15T00:51:55;100619.91;;;7.63;79.40
74631;BME280;63138;55.082;38.804;2023-05-15T00:54:23;100621.75;;;7.63;79.67
74631;BME280;63138;55.082;38.804;2023-05-15T00:56:49;100625.31;;;7.63;79.38
74631;BME280;63138;55.082;38.804;2023-05-15T00:59:16;100616.78;;;7.58;79.82
74631;BME280;63138;55.082;38.804;2023-05-15T01:01:42;100633.44;;;7.63;79.65
74631;BME280;63138;55.082;38.804;2023-05-15T01:04:11;100625.72;;;7.59;79.71
74631;BME280;63138;55.082;38.804;2023-05-15T01:06:36;100641.53;;;7.63;79.43
74631;BME280;63138;55.082;38.804;2023-05-15T01:09:03;100627.16;;;7.63;79.93
74631;BME280;63138;55.082;38.804;2023-05-15T01:11:30;100640.53;;;7.64;80.09
74631;BME280;63138;55.082;38.804;2023-05-15T01:14:05;100640.66;;;7.63;79.26
74631;BME280;63138;55.082;38.804;2023-05-15T01:16:34;100638.09;;;7.61;79.95
74631;BME280;63138;55.082;38.804;2023-05-15T01:19:03;100632.84;;;7.60;80.04
74631;BME280;63138;55.082;38.804;2023-05-15T01:31:41;100637.69;;;7.56;80.05
74631;BME280;63138;55.082;38.804;2023-05-15T01:34:09;100637.69;;;7.56;79.68
74631;BME280;63138;55.082;38.804;2023-05-15T01:36:45;100640.22;;;7.58;80.28
74631;BME280;63138;55.082;38.804;2023-05-15T01:39:15;100643.09;;;7.56;80.32
74631;BME280;63138;55.082;38.804;2023-05-15T01:41:59;100649.63;;;7.54;79.88
74631;BME280;63138;55.082;38.804;2023-05-15T01:44:29;100638.66;;;7.55;79.93
74631;BME280;63138;55.082;38.804;2023-05-15T01:47:11;100642.53;;;7.53;79.88
74631;BME280;63138;55.082;38.804;2023-05-15T01:49:38;100634.53;;;7.51;80.09
74631;BME280;63138;55.082;38.804;2023-05-15T01:52:16;100639.94;;;7.51;80.58
74631;BME280;63138;55.082;38.804;2023-05-15T01:54:45;100647.06;;;7.52;80.39
74631;BME280;63138;55.082;38.804;2023-05-15T01:57:13;100644.47;;;7.51;80.44
74631;BME280;63138;55.082;38.804;2023-05-15T01:59:40;100646.19;;;7.52;80.40
74631;BME280;63138;55.082;38.804;2023-05-15T02:02:09;100645.34;;;7.51;79.90
74631;BME280;63138;55.082;38.804;2023-05-15T02:04:37;100644.06;;;7.55;80.46
74631;BME280;63138;55.082;38.804;2023-05-15T02:07:03;100651.19;;;7.56;80.16
74631;BME280;63138;55.082;38.804;2023-05-15T02:09:30;100652.19;;;7.55;79.63
74631;BME280;63138;55.082;38.804;2023-05-15T02:12:01;100657.47;;;7.57;79.35
74631;BME280;63138;55.082;38.804;2023-05-15T02:14:30;100655.59;;;7.57;79.51
74631;BME280;63138;55.082;38.804;2023-05-15T02:16:56;100647.09;;;7.62;79.60
74631;BME280;63138;55.082;38.804;2023-05-15T02:19:23;100653.34;;;7.62;79.58
74631;BME280;63138;55.082;38.804;2023-05-15T02:21:50;100652.19;;;7.65;79.50
74631;BME280;63138;55.082;38.804;2023-05-15T02:24:16;100655.47;;;7.69;79.50
74631;BME280;63138;55.082;38.804;2023-05-15T02:27:04;100651.78;;;7.70;78.90
74631;BME280;63138;55.082;38.804;2023-05-15T02:32:33;100661.03;;;7.67;79.35
74631;BME280;63138;55.082;38.804;2023-05-15T02:37:40;100669.28;;;7.75;78.50
74631;BME280;63138;55.082;38.804;2023-05-15T02:40:10;100664.00;;;7.74;78.77
74631;BME280;63138;55.082;38.804;2023-05-15T02:42:39;100666.56;;;7.75;78.89
74631;BME280;63138;55.082;38.804;2023-05-15T02:45:07;100664.44;;;7.79;nan
74631;BME280;63138;55.082;38.804;2023-05-15T02:47:35;100660.75;;;7.80;78.28
74631;BME280;63138;55.082;38.804;2023-05-15T02:50:03;100662.75;;;7.88;77.76
74631;BME280;63138;55.082;38.804;2023-05-15T02:52:32;100667.31;;;7.87;77.18
74631;BME280;63138;55.082;38.804;2023-05-15T02:54:59;100667.88;;;7.91;77.55
74631;BME280;63138;55.082;38.804;2023-05-15T02:57:25;100671.28;;;8.02;76.78
74631;BME280;63138;55.082;38.804;2023-05-15T02:59:52;100672.69;;;8.07;76.40
74631;BME280;63138;55.082;38.804;2023-05-15T03:02:19;100669.84;;;8.08;76.85
74631;BME280;63138;55.082;38.804;2023-05-15T03:04:45;100675.41;;;8.07;76.65
74631;BME280;63138;55.082;38.804;2023-05-15T03:07:11;100669.00;;;8.08;76.61
74631;BME280;63138;55.082;38.804;2023-05-15T03:09:39;100677.97;;;8.18;75.96
74631;BME280;63138;55.082;38.804;2023-05-15T03:12:06;100680.94;;;8.24;75.40
74631;BME280;63138;55.082;38.804;2023-05-15T03:14:32;100680.09;;;8.24;74.82
74631;BME280;63138;55.082;38.804;2023-05-15T03:16:59;100679.38;;;8.32;75.07
74631;BME280;63138;55.082;38.804;2023-05-15T03:19:25;100685.34;;;8.35;74.43
74631;BME280;63138;55.082;38.804;2023-05-15T03:21:51;100683.78;;;8.33;74.89
74631;BME280;63138;55.082;38.804;2023-05-15T03:24:17;100686.50;;;8.33;74.58
74631;BME280;63138;55.082;38.804;2023-05-15T03:26:43;100692.91;;;8.41;74.74
74631;BME280;63138;55.082;38.804;2023-05-15T03:29:10;100686.50;;;8.42;74.69
74631;BME280;63138;55.082;38.804;2023-05-15T03:31:36;100685.50;;;8.53;73.82
74631;BME280;63138;55.082;38.804;2023-05-15T03:34:02;100691.75;;;8.64;73.76
74631;BME280;63138;55.082;38.804;2023-05-15T03:36:28;100689.47;;;8.69;73.60
74631;BME280;63138;55.082;38.804;2023-05-15T03:38:54;100692.88;;;8.80;73.01
74631;BME280;63138;55.082;38.804;2023-05-15T03:41:20;100695.25;;;8.93;72.50
74631;BME280;63138;55.082;38.804;2023-05-15T03:43:46;100688.09;;;9.02;71.86
74631;BME280;63138;55.082;38.804;2023-05-15T03:46:16;100698.47;;;9.07;71.91
74631;BME280;63138;55.082;38.804;2023-05-15T03:48:42;100686.16;;;9.22;70.86
74631;BME280;63138;55.082;38.804;2023-05-15T03:51:07;100705.22;;;9.30;70.68
74631;BME280;63138;55.082;38.804;2023-05-15T03:53:33;100701.44;;;9.41;70.35
74631;BME280;63138;55.082;38.804;2023-05-15T03:55:59;100699.00;;;9.48;69.96
74631;BME280;63138;55.082;38.804;2023-05-15T03:58:26;100698.78;;;9.59;69.99
74631;BME280;63138;55.082;38.804;2023-05-15T04:00:52;100692.38;;;9.78;69.11
74631;BME280;63138;55.082;38.804;2023-05-15T04:03:18;100696.88;;;9.87;68.45
74631;BME280;63138;55.082;38.804;2023-05-15T04:05:44;100694.78;;;9.99;68.36
74631;BME280;63138;55.082;38.804;2023-05-15T04:08:15;100697.44;;;10.09;67.80
74631;BME280;63138;55.082;38.804;2023-05-15T04:10:41;100695.16;;;10.22;67.26
74631;BME280;63138;55.082;38.804;2023-05-15T04:13:07;100695.50;;;10.19;67.15
74631;BME280;63138;55.082;38.804;2023-05-15T04:15:34;100694.19;;;10.23;67.53
74631;BME280;63138;55.082;38.804;2023-05-15T04:18:00;100700.16;;;10.45;66.98
74631;BME280;63138;55.082;38.804;2023-05-15T04:20:26;100697.41;;;10.63;66.18
74631;BME280;63138;55.082;38.804;2023-05-15T04:22:52;100686.75;;;10.69;65.60
74631;BME280;63138;55.082;38.804;2023-05-15T04:25:18;100704.75;;;10.70;65.77
74631;BME280;63138;55.082;38.804;2023-05-15T04:27:47;100709.22;;;10.80;65.72
74631;BME280;63138;55.082;38.804;2023-05-15T04:30:14;100706.56;;;10.88;65.34
74631;BME280;63138;55.082;38.804;2023-05-15T04:32:40;100709.66;;;10.93;65.83
74631;BME280;63138;55.082;38.804;2023-05-15T04:35:08;100709.22;;;11.06;65.01
74631;BME280;63138;55.082;38.804;2023-05-15T04:37:35;100711.94;;;11.06;65.33
74631;BME280;63138;55.082;38.804;2023-05-15T04:40:01;100713.06;;;10.95;65.89
74631;BME280;63138;55.082;38.804;2023-05-15T04:42:29;100713.97;;;11.04;65.47
74631;BME280;63138;55.082;38.804;2023-05-15T04:44:56;100710.56;;;11.36;64.33
74631;BME280;63138;55.082;38.804;2023-05-15T04:47:23;100710.63;;;11.53;63.82
74631;BME280;63138;55.082;38.804;2023-05-15T04:49:49;100711.72;;;11.76;63.11
74631;BME280;63138;55.082;38.804;2023-05-15T04:52:16;100714.63;;;11.75;63.16
74631;BME280;63138;55.082;38.804;2023-05-15T04:54:42;100710.38;;;11.80;63.15
74631;BME280;63138;55.082;38.804;2023-05-15T04:57:08;100717.53;;;11.90;62.86
74631;BME280;63138;55.082;38.804;2023-05-15T04:59:34;100705.69;;;12.15;62.09
74631;BME280;63138;55.082;38.804;2023-05-15T05:02:01;100708.44;;;12.40;61.38
74631;BME280;63138;55.082;38.804;2023-05-15T05:04:27;100700.94;;;12.26;61.98
74631;BME280;63138;55.082;38.804;2023-05-15T05:06:53;100695.50;;;12.42;61.56
74631;BME280;63138;55.082;38.804;2023-05-15T05:09:38;100702.28;;;12.71;60.48
74631;BME280;63138;55.082;38.804;2023-05-15T05:12:06;100705.31;;;13.00;59.98
74631;BME280;63138;55.082;38.804;2023-05-15T05:14:50;100704.28;;;13.10;59.64
74631;BME280;63138;55.082;38.804;2023-05-15T05:17:17;100699.94;;;13.71;58.26
74631;BME280;63138;55.082;38.804;2023-05-15T05:19:43;100706.38;;;14.33;55.90
74631;BME280;63138;55.082;38.804;2023-05-15T05:22:09;100709.16;;;14.48;55.29
74631;BME280;63138;55.082;38.804;2023-05-15T05:24:35;100709.66;;;14.51;55.48
74631;BME280;63138;55.082;38.804;2023-05-15T05:27:03;100701.72;;;14.57;55.29
74631;BME280;63138;55.082;38.804;2023-05-15T05:29:29;100699.38;;;15.21;53.78
74631;BME280;63138;55.082;38.804;2023-05-15T05:31:57;100693.22;;;16.65;49.92
74631;BME280;63138;55.082;38.804;2023-05-15T05:34:23;100700.41;;;17.57;46.95
74631;BME280;63138;55.082;38.804;2023-05-15T05:36:49;100697.88;;;18.24;45.25
74631;BME280;63138;55.082;38.804;2023-05-15T05:39:16;100699.97;;;18.29;45.52
74631;BME280;63138;55.082;38.804;2023-05-15T05:41:42;100695.31;;;18.16;45.58
74631;BME280;63138;55.082;38.804;2023-05-15T05:44:08;100695.09;;;18.11;45.43
74631;BME280;63138;55.082;38.804;2023-05-15T05:46:34;100696.16;;;18.10;45.51
74631;BME280;63138;55.082;38.804;2023-05-15T05:49:00;100689.22;;;18.81;43.89
74631;BME280;63138;55.082;38.804;2023-05-15T05:51:26;100682.75;;;19.54;42.26
74631;BME280;63138;55.082;38.804;2023-05-15T05:54:17;100683.78;;;19.53;41.84
74631;BME280;63138;55.082;38.804;2023-05-15T05:56:43;100686.16;;;19.42;41.82
74631;BME280;63138;55.082;38.804;2023-05-15T05:59:09;100686.81;;;19.38;41.86
74631;BME280;63138;55.082;38.804;2023-05-15T06:01:35;100685.25;;;19.55;41.69
74631;BME280;63138;55.082;38.804;2023-05-15T06:04:01;100678.94;;;20.32;40.23
74631;BME280;63138;55.082;38.804;2023-05-15T06:06:27;100685.72;;;20.86;39.06
74631;BME280;63138;55.082;38.804;2023-05-15T06:08:53;100681.69;;;21.44;37.65
74631;BME280;63138;55.082;38.804;2023-05-15T06:11:19;100683.97;;;22.45;36.32
74631;BME280;63138;55.082;38.804;2023-05-15T06:13:46;100681.72;;;23.01;34.67
74631;BME280;63138;55.082;38.804;2023-05-15T06:16:11;100676.78;;;22.56;35.10
74631;BME280;63138;55.082;38.804;2023-05-15T06:18:37;100678.94;;;22.53;35.29
74631;BME280;63138;55.082;38.804;2023-05-15T06:21:03;100674.25;;;22.42;35.43
74631;BME280;63138;55.082;38.804;2023-05-15T06:23:29;100664.03;;;23.37;33.83
74631;BME280;63138;55.082;38.804;2023-05-15T06:25:55;100667.13;;;23.53;32.77
74631;BME280;63138;55.082;38.804;2023-05-15T06:28:21;100671.56;;;23.94;32.46
74631;BME280;63138;55.082;38.804;2023-05-15T06:30:47;100669.06;;;23.40;32.89
74631;BME280;63138;55.082;38.804;2023-05-15T06:33:13;100666.09;;;23.71;32.07
74631;BME280;63138;55.082;38.804;2023-05-15T06:35:39;100670.16;;;24.37;31.23
74631;BME280;63138;55.082;38.804;2023-05-15T06:38:04;100673.56;;;24.73;30.20
74631;BME280;63138;55.082;38.804;2023-05-15T06:40:30;100666.06;;;24.57;30.35
74631;BME280;63138;55.082;38.804;2023-05-15T06:42:56;100668.25;;;24.09;29.86
74631;BME280;63138;55.082;38.804;2023-05-15T06:45:23;100664.78;;;24.48;29.03
74631;BME280;63138;55.082;38.804;2023-05-15T06:47:49;100667.72;;;24.92;28.69
74631;BME280;63138;55.082;38.804;2023-05-15T06:50:15;100673.22;;;24.87;27.64
74631;BME280;63138;55.082;38.804;2023-05-15T06:52:41;100667.81;;;24.63;27.77
74631;BME280;63138;55.082;38.804;2023-05-15T06:55:07;100664.38;;;24.73;27.92
74631;BME280;63138;55.082;38.804;2023-05-15T06:57:33;100660.91;;;23.86;27.74
74631;BME280;63138;55.082;38.804;2023-05-15T06:59:59;100663.44;;;23.23;29.32
74631;BME280;63138;55.082;38.804;2023-05-15T07:02:25;100674.75;;;23.74;28.43
74631;BME280;63138;55.082;38.804;2023-05-15T07:04:51;100664.59;;;24.20;26.64
74631;BME280;63138;55.082;38.804;2023-05-15T07:07:17;100665.81;;;24.75;25.66
74631;BME280;63138;55.082;38.804;2023-05-15T07:09:43;100662.44;;;24.73;25.06
74631;BME280;63138;55.082;38.804;2023-05-15T07:12:13;100665.28;;;25.56;24.23
74631;BME280;63138;55.082;38.804;2023-05-15T07:14:40;100665.19;;;25.46;22.33
74631;BME280;63138;55.082;38.804;2023-05-15T07:17:05;100662.31;;;25.02;23.92
74631;BME280;63138;55.082;38.804;2023-05-15T07:19:31;100667.81;;;24.63;24.45
74631;BME280;63138;55.082;38.804;2023-05-15T07:21:57;100661.88;;;24.09;25.20
74631;BME280;63138;55.082;38.804;2023-05-15T07:24:24;100662.34;;;23.01;26.03
74631;BME280;63138;55.082;38.804;2023-05-15T07:26:53;100652.72;;;22.44;26.81
74631;BME280;63138;55.082;38.804;2023-05-15T07:29:21;100659.97;;;22.93;26.68
74631;BME280;63138;55.082;38.804;2023-05-15T07:31:48;100654.38;;;22.03;27.27
74631;BME280;63138;55.082;38.804;2023-05-15T07:34:14;100657.94;;;21.43;28.53
74631;BME280;63138;55.082;38.804;2023-05-15T07:36:40;100661.66;;;21.12;28.92
74631;BME280;63138;55.082;38.804;2023-05-15T07:39:05;100658.75;;;21.07;29.96
74631;BME280;63138;55.082;38.804;2023-05-15T07:41:31;100649.44;;;20.57;29.90
74631;BME280;63138;55.082;38.804;2023-05-15T07:43:58;100654.84;;;20.46;30.94
74631;BME280;63138;55.082;38.804;2023-05-15T07:46:26;100655.38;;;21.05;30.21
74631;BME280;63138;55.082;38.804;2023-05-15T07:48:52;100650.06;;;20.59;31.08
74631;BME280;63138;55.082;38.804;2023-05-15T07:51:18;100645.63;;;20.01;31.99
74631;BME280;63138;55.082;38.804;2023-05-15T07:53:43;100653.94;;;19.95;31.86
74631;BME280;63138;55.082;38.804;2023-05-15T07:56:09;100659.63;;;20.00;32.00
74631;BME280;63138;55.082;38.804;2023-05-15T07:58:35;100646.63;;;20.39;31.34
74631;BME280;63138;55.082;38.804;2023-05-15T08:01:03;100648.72;;;21.31;30.17
74631;BME280;63138;55.082;38.804;2023-05-15T08:03:29;100642.34;;;21.98;29.17
74631;BME280;63138;55.082;38.804;2023-05-15T08:05:56;100641.16;;;22.59;27.99
74631;BME280;63138;55.082;38.804;2023-05-15T08:08:21;100630.81;;;23.25;27.23
74631;BME280;63138;55.082;38.804;2023-05-15T08:10:47;100641.19;;;23.18;26.64
74631;BME280;63138;55.082;38.804;2023-05-15T08:13:13;100637.41;;;23.24;26.42
74631;BME280;63138;55.082;38.804;2023-05-15T08:15:39;100629.63;;;23.21;25.90
74631;BME280;63138;55.082;38.804;2023-05-15T08:18:08;100635.03;;;23.57;25.82
74631;BME280;63138;55.082;38.804;2023-05-15T08:20:35;100628.16;;;22.95;26.75
74631;BME280;63138;55.082;38.804;2023-05-15T08:23:02;100623.28;;;22.20;27.62
74631;BME280;63138;55.082;38.804;2023-05-15T08:25:28;100632.69;;;21.39;28.74
74631;BME280;63138;55.082;38.804;2023-05-15T08:27:54;100633.22;;;20.93;29.69
74631;BME280;63138;55.082;38.804;2023-05-15T08:30:20;100631.91;;;20.20;31.29
74631;BME280;63138;55.082;38.804;2023-05-15T08:32:46;100630.22;;;19.94;31.72
74631;BME280;63138;55.082;38.804;2023-05-15T08:35:13;100632.66;;;19.70;32.26
74631;BME280;63138;55.082;38.804;2023-05-15T08:37:40;100626.88;;;20.17;31.35
74631;BME280;63138;55.082;38.804;2023-05-15T08:40:06;100623.44;;;19.90;31.58
74631;BME280;63138;55.082;38.804;2023-05-15T08:42:46;100618.31;;;19.93;31.65
74631;BME280;63138;55.082;38.804;2023-05-15T08:45:13;100618.50;;;19.98;32.13
74631;BME280;63138;55.082;38.804;2023-05-15T08:47:59;100610.72;;;19.50;32.55
74631;BME280;63138;55.082;38.804;2023-05-15T08:50:25;100609.28;;;20.11;31.65
74631;BME280;63138;55.082;38.804;2023-05-15T08:52:52;100607.81;;;20.66;30.20
74631;BME280;63138;55.082;38.804;2023-05-15T08:55:26;100604.75;;;20.74;29.79
74631;BME280;63138;55.082;38.804;2023-05-15T08:57:53;100609.59;;;21.52;29.83
74631;BME280;63138;55.082;38.804;2023-05-15T09:00:46;100612.22;;;22.20;28.29
74631;BME280;63138;55.082;38.804;2023-05-15T09:03:14;100614.69;;;21.67;28.51
74631;BME280;63138;55.082;38.804;2023-05-15T09:05:40;100599.16;;;21.85;28.08
74631;BME280;63138;55.082;38.804;2023-05-15T09:08:07;100601.63;;;21.74;28.15
74631;BME280;63138;55.082;38.804;2023-05-15T09:10:34;100602.47;;;21.75;28.23
74631;BME280;63138;55.082;38.804;2023-05-15T09:13:01;100590.59;;;22.17;28.01
74631;BME280;63138;55.082;38.804;2023-05-15T09:15:29;100591.56;;;22.22;27.67
74631;BME280;63138;55.082;38.804;2023-05-15T09:17:55;100590.63;;;21.56;28.29
74631;BME280;63138;55.082;38.804;2023-05-15T09:20:36;100583.38;;;21.73;28.73
74631;BME280;63138;55.082;38.804;2023-05-15T09:23:04;100584.50;;;21.84;28.57
74631;BME280;63138;55.082;38.804;2023-05-15T09:25:38;100578.09;;;22.26;28.28
74631;BME280;63138;55.082;38.804;2023-05-15T09:28:06;100584.56;;;22.08;27.98
74631;BME280;63138;55.082;38.804;2023-05-15T09:30:33;100573.66;;;22.72;26.97
74631;BME280;63138;55.082;38.804;2023-05-15T09:33:02;100571.47;;;22.74;25.78
74631;BME280;63138;55.082;38.804;2023-05-15T09:35:34;100565.34;;;23.07;25.72
74631;BME280;63138;55.082;38.804;2023-05-15T09:38:19;100569.09;;;22.66;25.78
74631;BME280;63138;55.082;38.804;2023-05-15T09:40:48;100553.19;;;22.85;25.46
74631;BME280;63138;55.082;38.804;2023-05-15T09:43:14;100549.84;;;22.59;25.64
74631;BME280;63138;55.082;38.804;2023-05-15T09:45:40;100562.72;;;22.30;26.03
74631;BME280;63138;55.082;38.804;2023-05-15T09:48:07;100554.41;;;22.89;25.44
74631;BME280;63138;55.082;38.804;2023-05-15T09:50:38;100552.44;;;23.01;25.06
74631;BME280;63138;55.082;38.804;2023-05-15T09:53:04;100556.22;;;22.83;25.44
74631;BME280;63138;55.082;38.804;2023-05-15T09:55:33;100547.66;;;22.26;26.08
74631;BME280;63138;55.082;38.804;2023-05-15T09:58:10;100547.19;;;22.64;25.46
74631;BME280;63138;55.082;38.804;2023-05-15T10:00:38;100553.44;;;22.60;25.76
74631;BME280;63138;55.082;38.804;2023-05-15T10:03:05;100558.53;;;22.27;25.88
74631;BME280;63138;55.082;38.804;2023-05-15T10:05:32;100561.28;;;22.39;25.87
74631;BME280;63138;55.082;38.804;2023-05-15T10:07:58;100552.63;;;22.47;26.60
74631;BME280;63138;55.082;38.804;2023-05-15T10:10:26;100537.19;;;22.75;25.13
74631;BME280;63138;55.082;38.804;2023-05-15T10:13:11;100552.84;;;22.58;25.26
74631;BME280;63138;55.082;38.804;2023-05-15T10:15:56;100551.81;;;21.93;25.58
74631;BME280;63138;55.082;38.804;2023-05-15T10:18:23;100548.38;;;21.67;27.27
74631;BME280;63138;55.082;38.804;2023-05-15T10:20:51;100554.94;;;21.54;27.59
74631;BME280;63138;55.082;38.804;2023-05-15T10:23:18;100552.16;;;21.06;28.78
74631;BME280;63138;55.082;38.804;2023-05-15T10:28:24;100541.41;;;20.60;28.43
74631;BME280;63138;55.082;38.804;2023-05-15T10:30:52;100536.31;;;20.39;28.85
74631;BME280;63138;55.082;38.804;2023-05-15T10:36:04;100533.00;;;20.74;28.94
74631;BME280;63138;55.082;38.804;2023-05-15T10:38:31;100545.44;;;21.02;28.89
74631;BME280;63138;55.082;38.804;2023-05-15T10:40:59;100538.91;;;20.77;28.63
74631;BME280;63138;55.082;38.804;2023-05-15T10:43:27;100539.22;;;20.69;28.71
74631;BME280;63138;55.082;38.804;2023-05-15T10:45:54;100535.63;;;20.43;28.56
74631;BME280;63138;55.082;38.804;2023-05-15T10:48:21;100538.13;;;20.70;28.23
74631;BME280;63138;55.082;38.804;2023-05-15T10:51:16;100534.34;;;20.46;28.37
74631;BME280;63138;55.082;38.804;2023-05-15T10:53:43;100535.41;;;20.45;28.29
74631;BME280;63138;55.082;38.804;2023-05-15T10:56:14;100533.34;;;20.40;27.55
74631;BME280;63138;55.082;38.804;2023-05-15T10:58:46;100528.94;;;20.08;28.17
74631;BME280;63138;55.082;38.804;2023-05-15T11:01:33;100530.19;;;20.37;27.95
74631;BME280;63138;55.082;38.804;2023-05-15T11:04:21;100525.25;;;20.20;28.11
74631;BME280;63138;55.082;38.804;2023-05-15T11:06:48;100527.34;;;20.43;28.14
74631;BME280;63138;55.082;38.804;2023-05-15T11:14:21;100522.91;;;20.68;27.58
74631;BME280;63138;55.082;38.804;2023-05-15T11:27:27;100519.44;;;21.39;26.89
74631;BME280;63138;55.082;38.804;2023-05-15T11:30:13;100515.94;;;21.44;26.56
74631;BME280;63138;55.082;38.804;2023-05-15T11:38:15;100507.38;;;21.04;27.38
74631;BME280;63138;55.082;38.804;2023-05-15T11:40:56;100500.28;;;21.26;27.60
74631;BME280;63138;55.082;38.804;2023-05-15T11:43:29;100502.97;;;20.66;27.46
74631;BME280;63138;55.082;38.804;2023-05-15T11:45:57;100500.03;;;20.60;27.55
74631;BME280;63138;55.082;38.804;2023-05-15T11:48:49;100493.63;;;20.23;28.08
74631;BME280;63138;55.082;38.804;2023-05-15T11:51:24;100500.38;;;20.71;27.81
74631;BME280;63138;55.082;38.804;2023-05-15T11:53:53;100497.25;;;21.16;27.08
74631;BME280;63138;55.082;38.804;2023-05-15T11:56:22;100493.44;;;20.98;27.42
74631;BME280;63138;55.082;38.804;2023-05-15T11:58:51;100492.53;;;20.68;28.02
74631;BME280;63138;55.082;38.804;2023-05-15T12:01:20;100486.13;;;20.49;28.07
74631;BME280;63138;55.082;38.804;2023-05-15T12:06:31;100482.31;;;20.50;27.42
74631;BME280;63138;55.082;38.804;2023-05-15T12:08:57;100473.75;;;20.14;27.96
74631;BME280;63138;55.082;38.804;2023-05-15T12:11:51;100476.88;;;19.99;28.56
74631;BME280;63138;55.082;38.804;2023-05-15T12:14:28;100471.75;;;20.03;28.04
74631;BME280;63138;55.082;38.804;2023-05-15T12:16:57;100473.44;;;20.48;27.53
74631;BME280;63138;55.082;38.804;2023-05-15T12:19:27;100467.63;;;20.74;27.30
74631;BME280;63138;55.082;38.804;2023-05-15T12:21:53;100469.06;;;20.95;26.99
74631;BME280;63138;55.082;38.804;2023-05-15T12:24:19;100462.34;;;21.33;26.46
74631;BME280;63138;55.082;38.804;2023-05-15T12:26:46;100460.94;;;21.43;26.04
74631;BME280;63138;55.082;38.804;2023-05-15T12:29:12;100467.56;;;21.42;26.35
74631;BME280;63138;55.082;38.804;2023-05-15T12:31:38;100464.38;;;21.56;25.75
74631;BME280;63138;55.082;38.804;2023-05-15T12:34:05;100464.59;;;21.55;26.13
74631;BME280;63138;55.082;38.804;2023-05-15T12:36:34;100464.66;;;21.67;26.15
74631;BME280;63138;55.082;38.804;2023-05-15T12:39:05;100458.44;;;21.41;25.68
74631;BME280;63138;55.082;38.804;2023-05-15T12:41:32;100455.63;;;21.60;26.25
74631;BME280;63138;55.082;38.804;2023-05-15T12:43:58;100453.81;;;21.23;26.26
74631;BME280;63138;55.082;38.804;2023-05-15T12:46:28;100451.22;;;21.40;26.70
74631;BME280;63138;55.082;38.804;2023-05-15T12:48:57;100450.78;;;21.13;26.49
74631;BME280;63138;55.082;38.804;2023-05-15T12:51:24;100444.34;;;21.31;26.31
74631;BME280;63138;55.082;38.804;2023-05-15T12:53:53;100447.81;;;21.56;26.40
74631;BME280;63138;55.082;38.804;2023-05-15T12:56:19;100448.03;;;21.55;25.89
74631;BME280;63138;55.082;38.804;2023-05-15T12:58:46;100446.75;;;21.81;25.86
74631;BME280;63138;55.082;38.804;2023-05-15T13:01:14;100447.63;;;21.39;25.98
74631;BME280;63138;55.082;38.804;2023-05-15T13:03:41;100444.19;;;21.56;25.76
74631;BME280;63138;55.082;38.804;2023-05-15T13:06:08;100431.38;;;21.85;25.57
74631;BME280;63138;55.082;38.804;2023-05-15T13:08:39;100412.03;;;21.73;25.96
74631;BME280;63138;55.082;38.804;2023-05-15T13:11:10;100424.63;;;21.93;25.50
74631;BME280;63138;55.082;38.804;2023-05-15T13:13:48;100429.56;;;21.67;25.11
74631;BME280;63138;55.082;38.804;2023-05-15T13:16:26;100440.50;;;21.86;24.91
74631;BME280;63138;55.082;38.804;2023-05-15T13:18:55;100432.94;;;21.93;24.54
74631;BME280;63138;55.082;38.804;2023-05-15T13:21:24;100428.63;;;21.97;25.07
74631;BME280;63138;55.082;38.804;2023-05-15T13:23:51;100429.56;;;21.91;25.07
74631;BME280;63138;55.082;38.804;2023-05-15T13:26:17;100430.75;;;21.71;24.90
74631;BME280;63138;55.082;38.804;2023-05-15T13:28:43;100428.84;;;21.84;24.79
74631;BME280;63138;55.082;38.804;2023-05-15T13:31:09;100432.41;;;21.61;25.09
74631;BME280;63138;55.082;38.804;2023-05-15T13:33:35;100437.72;;;21.50;25.05